YM Initiative — A8HX4 — position and weather

sailwx.info

Track history (hours):
 
Tides and Currents Weather Stations Pressure Air Temp Water Temp Dewpoint Dewpoint Depression Visibility Wind Speed Wind Dir Waves Ship Positions

YM Initiative

Last reported at 2018-Apr-19 11:44 UTC. Time now 2018-Apr-23 02:04 UTC.
Position N 16°11' E 108°13'.

Length 173 m; draft 7.7 m.

Type: Cargo ship. MMSI: 635961368.

Date/timePositionNaut miles runAvg speedWind from/ knotsBaromVisibWave heightAir tempDewpointWater temp
2018-Apr-19 11:44N 16°11' E 108°13'2 8.6
2018-Apr-19 11:30N 16°09' E 108°12'2 3.8
2018-Apr-19 10:57N 16°07' E 108°13'0 0.0
2018-Apr-19 10:27N 16°07' E 108°13'0 0.0
2018-Apr-19 09:57N 16°07' E 108°13'0 0.0
2018-Apr-19 09:27N 16°07' E 108°13'0 0.0
2018-Apr-19 08:51N 16°07' E 108°13'0 0.0
2018-Apr-19 08:27N 16°07' E 108°13'0 0.0
2018-Apr-19 07:57N 16°07' E 108°13'0 0.0
2018-Apr-19 07:27N 16°07' E 108°13'0 0.0
2018-Apr-19 06:57N 16°07' E 108°13'0 0.0
2018-Apr-19 06:27N 16°07' E 108°13'0 0.0
2018-Apr-19 05:57N 16°07' E 108°13'0 0.0
2018-Apr-19 05:27N 16°07' E 108°13'0 0.0
2018-Apr-19 04:57N 16°07' E 108°13'0 0.0
2018-Apr-19 04:30N 16°07' E 108°13'0 0.2
2018-Apr-19 04:00N 16°07' E 108°13'1 2.4
2018-Apr-19 03:30N 16°08' E 108°12'1 2.1
2018-Apr-19 03:00N 16°09' E 108°12'11 6.6
2018-Apr-19 01:18N 16°10' E 108°24'3 9.5
2018-Apr-19 01:00N 16°08' E 108°27'  
2018-Apr-14 16:03N 01°13' E 103°56'111.0
2018-Apr-14 16:00N 01°13' E 103°55'510.0
2018-Apr-14 15:30N 01°11' E 103°51'4 8.5
2018-Apr-14 15:00N 01°09' E 103°47'5 9.8
2018-Apr-14 14:29N 01°05' E 103°43'510.1
2018-Apr-14 13:59N 01°03' E 103°39'510.1
2018-Apr-14 13:30N 01°05' E 103°35'5 9.3
2018-Apr-14 12:59N 01°07' E 103°31'5 9.9
2018-Apr-14 12:28N 01°10' E 103°26'510.3
2018-Apr-14 11:57N 01°13' E 103°22'510.1
2018-Apr-14 11:29N 01°16' E 103°18'  
2018-Apr-12 03:51N 01°21' E 103°18'412.8
2018-Apr-12 03:30N 01°18' E 103°21'612.5
2018-Apr-12 03:00N 01°14' E 103°26'612.1
2018-Apr-12 02:30N 01°12' E 103°31'611.7
2018-Apr-12 02:00N 01°11' E 103°37'4 9.0
2018-Apr-12 01:30N 01°13' E 103°41'611.8
2018-Apr-12 01:01N 01°17' E 103°46'0 0.8
2018-Apr-12 00:29N 01°17' E 103°46'0 0.0
2018-Apr-11 23:59N 01°17' E 103°46'0 0.0
2018-Apr-11 23:29N 01°17' E 103°46'0 0.0
2018-Apr-11 22:59N 01°17' E 103°46'0 0.0
2018-Apr-11 22:29N 01°17' E 103°46'0 0.0
2018-Apr-11 21:56N 01°17' E 103°46'0 0.0
2018-Apr-11 21:29N 01°17' E 103°46'0 0.0
2018-Apr-11 20:59N 01°17' E 103°46'0 0.0
2018-Apr-11 20:29N 01°17' E 103°46'0 0.0
2018-Apr-11 19:59N 01°17' E 103°46'0 0.0
2018-Apr-11 19:29N 01°17' E 103°46'0 0.0
2018-Apr-11 18:59N 01°17' E 103°46'0 0.0
2018-Apr-11 18:29N 01°17' E 103°46'0 0.0
2018-Apr-11 17:59N 01°17' E 103°46'0 0.0
2018-Apr-11 17:29N 01°17' E 103°46'0 0.0
2018-Apr-11 16:59N 01°17' E 103°46'0 0.0
2018-Apr-11 16:29N 01°17' E 103°46'0 0.0
2018-Apr-11 15:56N 01°17' E 103°46'0 0.0
2018-Apr-11 15:29N 01°17' E 103°46'0 0.0
2018-Apr-11 14:59N 01°17' E 103°46'0 0.0
2018-Apr-11 14:29N 01°17' E 103°46'0 0.0
2018-Apr-11 13:59N 01°17' E 103°46'0 0.0
2018-Apr-11 13:29N 01°17' E 103°46'0 0.0
2018-Apr-11 12:56N 01°17' E 103°46'0 0.0
2018-Apr-11 12:29N 01°17' E 103°46'0 0.0
2018-Apr-11 11:59N 01°17' E 103°46'0 0.0
2018-Apr-11 11:29N 01°17' E 103°46'0 0.3
2018-Apr-11 11:01N 01°17' E 103°46'1 2.3
2018-Apr-11 10:30N 01°16' E 103°46'611.4
2018-Apr-11 10:00N 01°12' E 103°50'611.4
2018-Apr-11 09:30N 01°14' E 103°55'715.2
2018-Apr-11 09:00N 01°16' E 104°03'  
Track history (hours):
 
Tides and Currents Weather Stations Pressure Air Temp Water Temp Dewpoint Dewpoint Depression Visibility Wind Speed Wind Dir Waves Ship Positions

YM Initiative

Last reported at 2018-Apr-19 11:44 UTC. Time now 2018-Apr-23 02:04 UTC.
Position N 16°11' E 108°13'.

Length 173 m; draft 7.7 m.

Type: Cargo ship. MMSI: 635961368.

Date/timePositionNaut miles runAvg speedWind from/ knotsBaromVisibWave heightAir tempDewpointWater temp
2018-Apr-19 11:44N 16°11' E 108°13'2 8.6
2018-Apr-19 11:30N 16°09' E 108°12'2 3.8
2018-Apr-19 10:57N 16°07' E 108°13'0 0.0
2018-Apr-19 10:27N 16°07' E 108°13'0 0.0
2018-Apr-19 09:57N 16°07' E 108°13'0 0.0
2018-Apr-19 09:27N 16°07' E 108°13'0 0.0
2018-Apr-19 08:51N 16°07' E 108°13'0 0.0
2018-Apr-19 08:27N 16°07' E 108°13'0 0.0
2018-Apr-19 07:57N 16°07' E 108°13'0 0.0
2018-Apr-19 07:27N 16°07' E 108°13'0 0.0
2018-Apr-19 06:57N 16°07' E 108°13'0 0.0
2018-Apr-19 06:27N 16°07' E 108°13'0 0.0
2018-Apr-19 05:57N 16°07' E 108°13'0 0.0
2018-Apr-19 05:27N 16°07' E 108°13'0 0.0
2018-Apr-19 04:57N 16°07' E 108°13'0 0.0
2018-Apr-19 04:30N 16°07' E 108°13'0 0.2
2018-Apr-19 04:00N 16°07' E 108°13'1 2.4
2018-Apr-19 03:30N 16°08' E 108°12'1 2.1
2018-Apr-19 03:00N 16°09' E 108°12'11 6.6
2018-Apr-19 01:18N 16°10' E 108°24'3 9.5
2018-Apr-19 01:00N 16°08' E 108°27'  
2018-Apr-14 16:03N 01°13' E 103°56'111.0
2018-Apr-14 16:00N 01°13' E 103°55'510.0
2018-Apr-14 15:30N 01°11' E 103°51'4 8.5
2018-Apr-14 15:00N 01°09' E 103°47'5 9.8
2018-Apr-14 14:29N 01°05' E 103°43'510.1
2018-Apr-14 13:59N 01°03' E 103°39'510.1
2018-Apr-14 13:30N 01°05' E 103°35'5 9.3
2018-Apr-14 12:59N 01°07' E 103°31'5 9.9
2018-Apr-14 12:28N 01°10' E 103°26'510.3
2018-Apr-14 11:57N 01°13' E 103°22'510.1
2018-Apr-14 11:29N 01°16' E 103°18'  
2018-Apr-12 03:51N 01°21' E 103°18'412.8
2018-Apr-12 03:30N 01°18' E 103°21'612.5
2018-Apr-12 03:00N 01°14' E 103°26'612.1
2018-Apr-12 02:30N 01°12' E 103°31'611.7
2018-Apr-12 02:00N 01°11' E 103°37'4 9.0
2018-Apr-12 01:30N 01°13' E 103°41'611.8
2018-Apr-12 01:01N 01°17' E 103°46'0 0.8
2018-Apr-12 00:29N 01°17' E 103°46'0 0.0
2018-Apr-11 23:59N 01°17' E 103°46'0 0.0
2018-Apr-11 23:29N 01°17' E 103°46'0 0.0
2018-Apr-11 22:59N 01°17' E 103°46'0 0.0
2018-Apr-11 22:29N 01°17' E 103°46'0 0.0
2018-Apr-11 21:56N 01°17' E 103°46'0 0.0
2018-Apr-11 21:29N 01°17' E 103°46'0 0.0
2018-Apr-11 20:59N 01°17' E 103°46'0 0.0
2018-Apr-11 20:29N 01°17' E 103°46'0 0.0
2018-Apr-11 19:59N 01°17' E 103°46'0 0.0
2018-Apr-11 19:29N 01°17' E 103°46'0 0.0
2018-Apr-11 18:59N 01°17' E 103°46'0 0.0
2018-Apr-11 18:29N 01°17' E 103°46'0 0.0
2018-Apr-11 17:59N 01°17' E 103°46'0 0.0
2018-Apr-11 17:29N 01°17' E 103°46'0 0.0
2018-Apr-11 16:59N 01°17' E 103°46'0 0.0
2018-Apr-11 16:29N 01°17' E 103°46'0 0.0
2018-Apr-11 15:56N 01°17' E 103°46'0 0.0
2018-Apr-11 15:29N 01°17' E 103°46'0 0.0
2018-Apr-11 14:59N 01°17' E 103°46'0 0.0
2018-Apr-11 14:29N 01°17' E 103°46'0 0.0
2018-Apr-11 13:59N 01°17' E 103°46'0 0.0
2018-Apr-11 13:29N 01°17' E 103°46'0 0.0
2018-Apr-11 12:56N 01°17' E 103°46'0 0.0
2018-Apr-11 12:29N 01°17' E 103°46'0 0.0
2018-Apr-11 11:59N 01°17' E 103°46'0 0.0
2018-Apr-11 11:29N 01°17' E 103°46'0 0.3
2018-Apr-11 11:01N 01°17' E 103°46'1 2.3
2018-Apr-11 10:30N 01°16' E 103°46'611.4
2018-Apr-11 10:00N 01°12' E 103°50'611.4
2018-Apr-11 09:30N 01°14' E 103°55'715.2
2018-Apr-11 09:00N 01°16' E 104°03'  

Dump ship's entire track history